createdAt,value
2023-04-08T00:01:41.468Z,4.33
2023-04-08T00:04:10.087Z,1.53
2023-04-08T00:06:38.992Z,1.00
2023-04-08T00:09:07.285Z,1.00
2023-04-08T00:11:35.928Z,0.80
2023-04-08T00:14:05.964Z,0.90
2023-04-08T00:16:34.070Z,1.20
2023-04-08T00:19:02.193Z,1.20
2023-04-08T00:21:31.525Z,1.30
2023-04-08T00:23:59.580Z,1.20
2023-04-08T00:26:27.611Z,1.20
2023-04-08T00:28:55.670Z,1.40
2023-04-08T00:31:25.551Z,1.30
2023-04-08T00:33:53.649Z,1.40
2023-04-08T00:36:21.658Z,1.40
2023-04-08T00:38:50.034Z,1.40
2023-04-08T00:41:18.417Z,1.60
2023-04-08T00:43:46.588Z,1.37
2023-04-08T00:46:14.804Z,1.50
2023-04-08T00:48:44.291Z,1.50
2023-04-08T00:51:12.418Z,1.50
2023-04-08T00:53:40.502Z,1.57
2023-04-08T00:56:08.566Z,1.67
2023-04-08T00:58:37.095Z,1.53
2023-04-08T01:01:08.419Z,1.43
2023-04-08T01:03:47.392Z,1.53
2023-04-08T01:06:23.491Z,1.50
2023-04-08T01:08:53.304Z,2.10
2023-04-08T01:11:22.257Z,1.70
2023-04-08T01:13:53.715Z,1.80
2023-04-08T01:16:23.087Z,1.97
2023-04-08T01:18:54.222Z,1.90
2023-04-08T01:21:24.921Z,2.10
2023-04-08T01:24:02.983Z,1.90
2023-04-08T01:26:32.785Z,2.00
2023-04-08T01:29:02.991Z,2.43
2023-04-08T01:31:31.942Z,2.20
2023-04-08T01:34:02.620Z,2.03
2023-04-08T01:36:32.622Z,2.30
2023-04-08T01:39:02.693Z,2.20
2023-04-08T01:41:34.458Z,2.37
2023-04-08T01:44:03.821Z,2.17
2023-04-08T01:46:33.528Z,1.90
2023-04-08T01:49:02.159Z,2.33
2023-04-08T01:51:31.856Z,2.50
2023-04-08T01:53:59.947Z,2.53
2023-04-08T01:56:33.905Z,2.60
2023-04-08T01:59:03.185Z,2.50
2023-04-08T02:01:33.668Z,3.00
2023-04-08T02:04:02.695Z,2.53
2023-04-08T02:06:32.030Z,3.10
2023-04-08T02:09:00.980Z,2.80
2023-04-08T02:11:29.420Z,3.00
2023-04-08T02:13:59.933Z,3.30
2023-04-08T02:16:33.627Z,3.70
2023-04-08T02:19:13.071Z,2.70
2023-04-08T02:21:47.336Z,3.27
2023-04-08T02:24:18.479Z,3.23
2023-04-08T02:26:48.446Z,3.20
2023-04-08T02:29:19.399Z,3.30
2023-04-08T02:31:48.360Z,3.53
2023-04-08T02:34:17.114Z,3.90
2023-04-08T02:36:47.323Z,3.60
2023-04-08T02:39:16.094Z,3.13
2023-04-08T02:41:44.173Z,3.50
2023-04-08T02:44:12.208Z,4.03
2023-04-08T02:46:43.604Z,2.87
2023-04-08T02:49:11.660Z,3.17
2023-04-08T02:51:39.698Z,3.10
2023-04-08T02:54:07.751Z,2.90
2023-04-08T02:56:35.774Z,3.60
2023-04-08T02:59:04.123Z,2.80
2023-04-08T03:01:32.335Z,2.53
2023-04-08T03:04:01.816Z,2.90
2023-04-08T03:06:29.944Z,2.70
2023-04-08T03:08:57.926Z,4.20
2023-04-08T03:11:26.098Z,3.40
2023-04-08T03:13:54.122Z,3.40
2023-04-08T03:16:22.295Z,3.10
2023-04-08T03:18:52.040Z,4.03
2023-04-08T03:21:21.804Z,3.00
2023-04-08T03:23:49.869Z,3.97
2023-04-08T03:26:17.856Z,3.70
2023-04-08T03:28:45.877Z,3.33
2023-04-08T03:31:14.190Z,3.77
2023-04-08T03:33:42.190Z,3.20
2023-04-08T03:36:10.280Z,3.43
2023-04-08T03:38:39.728Z,3.73
2023-04-08T03:41:07.802Z,3.50
2023-04-08T03:43:37.898Z,3.73
2023-04-08T03:46:06.271Z,3.40
2023-04-08T03:48:34.430Z,3.07
2023-04-08T03:51:02.475Z,3.50
2023-04-08T03:53:30.808Z,4.03
2023-04-08T03:56:01.452Z,3.70
2023-04-08T03:58:29.838Z,4.10
2023-04-08T04:00:58.080Z,3.97
2023-04-08T04:03:26.431Z,4.17
2023-04-08T04:05:54.654Z,3.80
2023-04-08T04:08:22.738Z,4.10
2023-04-08T04:10:51.566Z,4.00
2023-04-08T04:13:21.975Z,4.40
2023-04-08T04:15:50.189Z,4.27
2023-04-08T04:18:18.466Z,4.40
2023-04-08T04:20:46.510Z,4.30
2023-04-08T04:23:14.521Z,4.70
2023-04-08T04:25:43.047Z,4.47
2023-04-08T04:28:11.097Z,4.90
2023-04-08T04:30:41.241Z,4.57
2023-04-08T04:33:09.408Z,4.47
2023-04-08T04:35:37.523Z,4.40
2023-04-08T04:38:10.580Z,4.60
2023-04-08T04:40:38.679Z,4.83
2023-04-08T04:43:06.730Z,5.03
2023-04-08T04:45:34.917Z,4.43
2023-04-08T04:48:04.522Z,4.20
2023-04-08T04:50:32.499Z,4.40
2023-04-08T04:53:00.815Z,5.40
2023-04-08T04:55:28.837Z,5.57
2023-04-08T04:57:56.843Z,5.30
2023-04-08T05:00:24.883Z,5.97
2023-04-08T05:02:53.030Z,5.70
2023-04-08T05:05:22.706Z,5.30
2023-04-08T05:07:51.100Z,5.60
2023-04-08T05:10:19.295Z,5.57
2023-04-08T05:12:47.337Z,5.43
2023-04-08T05:15:15.723Z,5.77
2023-04-08T05:17:43.792Z,5.53
2023-04-08T05:20:12.306Z,5.47
2023-04-08T05:22:42.580Z,4.97
2023-04-08T05:25:11.480Z,5.57
2023-04-08T05:27:40.498Z,5.30
2023-04-08T05:30:09.903Z,5.37
2023-04-08T05:32:38.022Z,5.47
2023-04-08T05:35:06.902Z,5.40
2023-04-08T05:37:34.992Z,5.23
2023-04-08T05:40:04.590Z,4.90
2023-04-08T05:42:33.139Z,5.13
2023-04-08T05:45:01.364Z,5.30
2023-04-08T05:47:29.443Z,5.00
2023-04-08T05:49:57.447Z,5.50
2023-04-08T05:52:25.660Z,4.47
2023-04-08T05:54:53.960Z,5.57
2023-04-08T05:57:23.346Z,4.60
2023-04-08T05:59:51.380Z,6.03
2023-04-08T06:02:19.545Z,5.40
2023-04-08T06:04:47.697Z,5.37
2023-04-08T06:07:15.795Z,5.63
2023-04-08T06:09:45.379Z,5.53
2023-04-08T06:12:13.498Z,6.53
2023-04-08T06:14:42.877Z,6.03
2023-04-08T06:17:11.125Z,6.00
2023-04-08T06:19:39.137Z,5.67
2023-04-08T06:22:07.192Z,6.20
2023-04-08T06:24:35.247Z,6.10
2023-04-08T06:27:03.277Z,5.60
2023-04-08T06:29:31.372Z,4.83
2023-04-08T06:32:00.955Z,5.80
2023-04-08T06:34:29.021Z,5.40
2023-04-08T06:36:57.308Z,5.37
2023-04-08T06:39:25.365Z,5.20
2023-04-08T06:41:54.534Z,5.37
2023-04-08T06:44:38.371Z,5.70
2023-04-08T06:47:07.790Z,5.40
2023-04-08T06:49:37.340Z,5.80
2023-04-08T06:52:06.698Z,5.50
2023-04-08T06:54:34.744Z,5.87
2023-04-08T06:57:04.153Z,5.20
2023-04-08T06:59:32.197Z,5.90
2023-04-08T07:02:00.485Z,5.60
2023-04-08T07:04:29.903Z,5.13
2023-04-08T07:06:57.911Z,5.40
2023-04-08T07:09:26.032Z,5.50
2023-04-08T07:11:54.095Z,5.47
2023-04-08T07:14:22.132Z,5.20
2023-04-08T07:16:50.326Z,5.40
2023-04-08T07:19:18.560Z,6.20
2023-04-08T07:21:47.916Z,5.87
2023-04-08T07:24:15.978Z,5.00
2023-04-08T07:26:43.984Z,5.67
2023-04-08T07:29:12.233Z,6.20
2023-04-08T07:31:40.377Z,5.90
2023-04-08T07:34:08.421Z,4.93
2023-04-08T07:36:36.475Z,5.63
2023-04-08T07:39:06.276Z,5.47
2023-04-08T07:41:34.298Z,5.63
2023-04-08T07:44:02.318Z,5.27
2023-04-08T07:46:31.555Z,5.60
2023-04-08T07:48:59.651Z,6.03
2023-04-08T07:51:27.964Z,15.60
2023-04-08T07:53:56.033Z,5.90
2023-04-08T07:56:25.383Z,5.30
2023-04-08T07:58:54.485Z,5.83
2023-04-08T08:01:24.391Z,5.70
2023-04-08T08:03:54.055Z,6.10
2023-04-08T08:06:22.789Z,5.70
2023-04-08T08:08:51.035Z,5.23
2023-04-08T08:11:19.119Z,6.90
2023-04-08T08:13:49.056Z,6.00
2023-04-08T08:16:17.273Z,6.00
2023-04-08T08:18:45.280Z,5.87
2023-04-08T08:21:13.364Z,5.77
2023-04-08T08:23:41.719Z,5.60
2023-04-08T08:26:11.234Z,5.00
2023-04-08T08:28:39.760Z,5.80
2023-04-08T08:31:09.221Z,5.57
2023-04-08T08:33:37.303Z,5.90
2023-04-08T08:36:07.018Z,6.83
2023-04-08T08:38:35.174Z,6.17
2023-04-08T08:41:04.201Z,5.57
2023-04-08T08:43:33.449Z,6.33
2023-04-08T08:46:01.818Z,7.33
2023-04-08T08:48:32.278Z,6.40
2023-04-08T08:51:00.379Z,7.07
2023-04-08T08:53:34.227Z,6.60
2023-04-08T08:58:35.316Z,6.40
2023-04-08T09:01:03.421Z,6.77
2023-04-08T09:03:33.142Z,6.37
2023-04-08T09:06:03.813Z,6.77
2023-04-08T09:08:34.079Z,5.87
2023-04-08T09:11:13.403Z,6.30
2023-04-08T09:13:41.703Z,5.97
2023-04-08T09:16:11.400Z,5.60
2023-04-08T09:18:44.323Z,6.93
2023-04-08T09:21:13.856Z,5.50
2023-04-08T09:23:43.928Z,5.57
2023-04-08T09:26:13.713Z,6.20
2023-04-08T09:28:43.926Z,6.90
2023-04-08T09:31:22.445Z,6.57
2023-04-08T09:33:53.673Z,6.37
2023-04-08T09:36:22.113Z,6.97
2023-04-08T09:38:50.552Z,6.73
2023-04-08T09:41:21.828Z,5.50
2023-04-08T09:43:52.298Z,5.70
2023-04-08T09:46:28.062Z,6.30
2023-04-08T09:49:05.856Z,6.23
2023-04-08T09:51:37.888Z,5.73
2023-04-08T09:54:13.761Z,6.10
2023-04-08T09:56:46.703Z,7.40
2023-04-08T09:59:17.652Z,5.30
2023-04-08T10:01:51.614Z,4.37
2023-04-08T10:04:26.476Z,4.20
2023-04-08T10:07:00.907Z,4.57
2023-04-08T10:09:29.625Z,5.10
2023-04-08T10:11:57.671Z,5.00
2023-04-08T10:14:28.577Z,5.03
2023-04-08T10:17:27.542Z,4.47
2023-04-08T10:19:58.548Z,3.90
2023-04-08T10:22:47.898Z,3.80
2023-04-08T10:25:31.425Z,3.63
2023-04-08T10:27:59.954Z,3.60
2023-04-08T10:30:41.965Z,4.47
2023-04-08T10:33:13.247Z,3.77
2023-04-08T10:35:46.413Z,3.57
2023-04-08T10:38:15.968Z,4.00
2023-04-08T10:40:45.169Z,4.07
2023-04-08T10:43:14.720Z,3.83
2023-04-08T10:45:45.199Z,3.40
2023-04-08T10:48:17.717Z,4.10
2023-04-08T10:50:54.252Z,9.37
2023-04-08T10:53:29.112Z,3.97
2023-04-08T10:56:06.199Z,4.13
2023-04-08T10:58:34.595Z,3.90
2023-04-08T11:01:07.394Z,4.67
2023-04-08T11:03:37.308Z,4.13
2023-04-08T11:06:08.216Z,3.70
2023-04-08T11:08:37.713Z,3.63
2023-04-08T11:11:09.037Z,3.73
2023-04-08T11:13:37.788Z,3.57
2023-04-08T11:16:17.594Z,3.90
2023-04-08T11:18:47.928Z,4.40
2023-04-08T11:21:18.133Z,4.47
2023-04-08T11:23:46.373Z,4.00
2023-04-08T11:26:16.271Z,4.87
2023-04-08T11:28:44.630Z,4.00
2023-04-08T11:31:13.410Z,4.30
2023-04-08T11:33:46.674Z,3.40
2023-04-08T11:36:14.891Z,3.70
2023-04-08T11:38:44.647Z,3.60
2023-04-08T11:41:12.953Z,4.10
2023-04-08T11:43:41.750Z,3.30
2023-04-08T11:46:11.542Z,3.40
2023-04-08T11:48:39.858Z,3.90
2023-04-08T11:51:09.812Z,3.43
2023-04-08T11:53:38.061Z,4.23
2023-04-08T11:56:20.276Z,3.60
2023-04-08T11:58:48.571Z,3.30
2023-04-08T12:01:16.901Z,3.00
2023-04-08T12:04:00.104Z,3.40
2023-04-08T12:06:29.377Z,3.20
2023-04-08T12:08:58.028Z,3.30
2023-04-08T12:11:27.471Z,3.30
2023-04-08T12:13:55.506Z,2.80
2023-04-08T12:16:23.653Z,3.83
2023-04-08T12:18:51.720Z,3.30
2023-04-08T12:21:19.781Z,3.30
2023-04-08T12:23:47.881Z,3.00
2023-04-08T12:26:15.933Z,4.80
2023-04-08T12:28:45.833Z,3.07
2023-04-08T12:31:13.971Z,3.70
2023-04-08T12:33:42.120Z,3.80
2023-04-08T12:36:12.201Z,3.60
2023-04-08T12:38:41.541Z,5.03
2023-04-08T12:41:09.575Z,4.20
2023-04-08T12:43:39.020Z,3.60
2023-04-08T12:46:08.477Z,3.90
2023-04-08T12:48:36.724Z,3.70
2023-04-08T12:51:04.890Z,3.10
2023-04-08T12:53:33.012Z,3.30
2023-04-08T12:56:01.003Z,3.13
2023-04-08T12:58:29.092Z,3.80
2023-04-08T13:00:57.192Z,3.67
2023-04-08T13:03:28.301Z,3.63
2023-04-08T13:05:56.593Z,3.40
2023-04-08T13:08:24.621Z,3.00
2023-04-08T13:10:52.755Z,3.97
2023-04-08T13:13:20.840Z,3.23
2023-04-08T13:15:49.002Z,3.43
2023-04-08T13:18:17.048Z,3.03
2023-04-08T13:20:46.942Z,3.70
2023-04-08T13:23:17.804Z,3.67
2023-04-08T13:25:46.426Z,3.30
2023-04-08T13:28:14.501Z,3.33
2023-04-08T13:30:42.584Z,3.87
2023-04-08T13:33:10.679Z,3.60
2023-04-08T13:35:38.765Z,3.93
2023-04-08T13:38:08.471Z,3.47
2023-04-08T13:40:36.759Z,3.60
2023-04-08T13:43:04.788Z,3.90
2023-04-08T13:45:32.858Z,4.67
2023-04-08T13:48:00.918Z,3.70
2023-04-08T13:50:29.096Z,4.40
2023-04-08T13:52:57.189Z,6.13
2023-04-08T13:55:26.897Z,4.17
2023-04-08T13:57:54.983Z,4.00
2023-04-08T14:00:23.342Z,3.47
2023-04-08T14:02:51.597Z,4.17
2023-04-08T14:05:19.951Z,3.93
2023-04-08T14:07:48.592Z,4.40
2023-04-08T14:10:17.474Z,3.70
2023-04-08T14:12:47.530Z,4.10
2023-04-08T14:15:15.687Z,3.83
2023-04-08T14:17:43.747Z,3.50
2023-04-08T14:20:12.249Z,4.20
2023-04-08T14:22:40.356Z,5.03
2023-04-08T14:25:09.022Z,5.40
2023-04-08T14:27:47.501Z,5.37
2023-04-08T14:30:24.466Z,4.37
2023-04-08T14:32:52.663Z,5.23
2023-04-08T14:35:21.414Z,5.07
2023-04-08T14:37:49.466Z,5.30
2023-04-08T14:40:17.522Z,4.70
2023-04-08T14:42:45.677Z,5.67
2023-04-08T14:45:14.028Z,5.13
2023-04-08T14:47:43.490Z,4.93
2023-04-08T14:50:12.143Z,6.00
2023-04-08T14:52:40.560Z,5.53
2023-04-08T14:55:09.132Z,4.77
2023-04-08T14:57:37.183Z,5.40
2023-04-08T15:00:06.000Z,5.73
2023-04-08T15:02:34.084Z,5.00
2023-04-08T15:05:03.528Z,5.67
2023-04-08T15:07:31.872Z,5.17
2023-04-08T15:09:59.955Z,4.63
2023-04-08T15:12:29.081Z,4.70
2023-04-08T15:14:57.156Z,5.30
2023-04-08T15:17:25.818Z,4.43
2023-04-08T15:19:53.853Z,4.90
2023-04-08T15:22:23.255Z,4.67
2023-04-08T15:24:51.303Z,4.60
2023-04-08T15:27:19.680Z,5.33
2023-04-08T15:29:47.720Z,5.13
2023-04-08T15:32:15.739Z,5.03
2023-04-08T15:34:43.721Z,5.10
2023-04-08T15:37:11.729Z,5.43
2023-04-08T15:39:41.714Z,5.53
2023-04-08T15:42:09.804Z,5.47
2023-04-08T15:44:37.828Z,5.70
2023-04-08T15:47:05.914Z,5.23
2023-04-08T15:49:33.944Z,5.13
2023-04-08T15:52:02.036Z,5.67
2023-04-08T15:54:31.201Z,5.97
2023-04-08T15:57:00.606Z,5.40
2023-04-08T15:59:30.309Z,7.03
2023-04-08T16:01:58.612Z,6.03
2023-04-08T16:04:26.697Z,5.43
2023-04-08T16:06:54.694Z,5.17
2023-04-08T16:09:25.605Z,5.73
2023-04-08T16:11:53.802Z,5.87
2023-04-08T16:14:23.145Z,5.63
2023-04-08T16:16:51.272Z,5.97
2023-04-08T16:19:22.090Z,5.97
2023-04-08T16:21:50.357Z,6.50
2023-04-08T16:24:20.701Z,6.20
2023-04-08T16:26:48.853Z,6.03
2023-04-08T16:29:16.903Z,5.23
2023-04-08T16:31:46.271Z,6.30
2023-04-08T16:34:14.275Z,5.70
2023-04-08T16:36:42.309Z,7.10
2023-04-08T16:39:10.484Z,6.33
2023-04-08T16:41:39.425Z,6.40
2023-04-08T16:44:07.602Z,6.47
2023-04-08T16:46:36.165Z,6.40
2023-04-08T16:49:05.866Z,5.60
2023-04-08T16:51:34.341Z,6.07
2023-04-08T16:54:02.442Z,6.50
2023-04-08T16:56:30.653Z,5.93
2023-04-08T16:58:58.647Z,6.93
2023-04-08T17:01:27.070Z,6.07
2023-04-08T17:03:55.586Z,5.90
2023-04-08T17:06:25.460Z,6.10
2023-04-08T17:08:53.814Z,5.00
2023-04-08T17:11:21.914Z,6.03
2023-04-08T17:13:50.350Z,4.90
2023-04-08T17:16:19.112Z,5.90
2023-04-08T17:18:47.384Z,5.30
2023-04-08T17:21:15.605Z,5.33
2023-04-08T17:23:44.994Z,4.30
2023-04-08T17:26:13.271Z,4.13
2023-04-08T17:28:41.698Z,3.80
2023-04-08T17:31:10.553Z,4.50
2023-04-08T17:33:38.719Z,3.43
2023-04-08T17:36:07.513Z,3.50
2023-04-08T17:38:39.619Z,3.63
2023-04-08T17:41:10.074Z,2.77
2023-04-08T17:43:38.350Z,3.53
2023-04-08T17:46:06.483Z,2.80
2023-04-08T17:48:34.660Z,3.00
2023-04-08T17:51:03.812Z,2.60
2023-04-08T17:53:33.088Z,3.27
2023-04-08T17:56:01.263Z,2.60
2023-04-08T17:58:30.889Z,2.90
2023-04-08T18:00:59.009Z,3.23
2023-04-08T18:03:27.276Z,3.33
2023-04-08T18:05:55.815Z,2.80
2023-04-08T18:08:23.907Z,2.97
2023-04-08T18:10:51.946Z,2.47
2023-04-08T18:13:20.011Z,4.47
2023-04-08T18:15:49.369Z,4.07
2023-04-08T18:18:20.093Z,3.10
2023-04-08T18:20:48.161Z,3.20
2023-04-08T18:23:16.158Z,2.70
2023-04-08T18:25:47.268Z,3.67
2023-04-08T18:28:15.555Z,5.40
2023-04-08T18:30:43.787Z,3.53
2023-04-08T18:33:13.149Z,3.17
2023-04-08T18:35:41.533Z,3.03
2023-04-08T18:38:09.751Z,3.10
2023-04-08T18:40:38.039Z,2.97
2023-04-08T18:43:06.107Z,2.70
2023-04-08T18:45:34.240Z,3.47
2023-04-08T18:48:02.293Z,4.23
2023-04-08T18:50:31.821Z,5.27
2023-04-08T18:52:59.878Z,5.30
2023-04-08T18:55:27.941Z,4.33
2023-04-08T18:57:56.159Z,20.47
2023-04-08T19:00:24.475Z,5.10
2023-04-08T19:02:53.595Z,3.90
2023-04-08T19:05:22.966Z,3.47
2023-04-08T19:07:53.038Z,4.13
2023-04-08T19:10:23.485Z,4.87
2023-04-08T19:12:51.645Z,4.40
2023-04-08T19:15:22.645Z,4.27
2023-04-08T19:17:51.526Z,3.53
2023-04-08T19:20:19.957Z,4.30
2023-04-08T19:22:49.684Z,4.10
2023-04-08T19:25:19.812Z,3.97
2023-04-08T19:27:47.820Z,3.27
2023-04-08T19:30:16.039Z,3.40
2023-04-08T19:32:44.326Z,3.63
2023-04-08T19:35:13.407Z,3.97
2023-04-08T19:37:41.485Z,3.87
2023-04-08T19:40:10.677Z,3.60
2023-04-08T19:42:40.089Z,3.03
2023-04-08T19:45:10.814Z,3.80
2023-04-08T19:47:39.657Z,6.03
2023-04-08T19:50:09.402Z,9.73
2023-04-08T19:52:37.464Z,4.40
2023-04-08T19:55:06.184Z,4.60
2023-04-08T19:57:34.235Z,3.40
2023-04-08T20:00:04.420Z,3.37
2023-04-08T20:02:34.875Z,4.03
2023-04-08T20:05:03.103Z,3.03
2023-04-08T20:07:31.150Z,4.07
2023-04-08T20:09:59.258Z,3.20
2023-04-08T20:12:27.324Z,3.37
2023-04-08T20:14:55.330Z,3.70
2023-04-08T20:17:24.877Z,3.70
2023-04-08T20:19:52.963Z,3.93
2023-04-08T20:22:21.373Z,3.00
2023-04-08T20:24:49.702Z,3.50
2023-04-08T20:27:18.747Z,3.67
2023-04-08T20:29:46.762Z,3.50
2023-04-08T20:32:14.804Z,4.17
2023-04-08T20:34:44.241Z,4.10
2023-04-08T20:37:12.283Z,4.33
2023-04-08T20:39:40.323Z,3.93
2023-04-08T20:42:09.402Z,4.00
2023-04-08T20:44:37.489Z,3.50
2023-04-08T20:47:05.572Z,3.57
2023-04-08T20:49:35.090Z,4.17
2023-04-08T20:52:04.632Z,3.40
2023-04-08T20:54:32.716Z,3.30
2023-04-08T20:57:00.812Z,3.20
2023-04-08T20:59:28.854Z,3.30
2023-04-08T21:01:56.965Z,3.40
2023-04-08T21:04:25.065Z,2.83
2023-04-08T21:06:53.090Z,3.23
2023-04-08T21:09:22.492Z,3.97
2023-04-08T21:11:50.535Z,3.47
2023-04-08T21:14:18.895Z,3.87
2023-04-08T21:16:47.124Z,4.23
2023-04-08T21:19:15.577Z,5.00
2023-04-08T21:21:45.719Z,9.13
2023-04-08T21:24:13.812Z,9.60
2023-04-08T21:26:43.279Z,9.17
2023-04-08T21:29:11.543Z,9.93
2023-04-08T21:31:40.278Z,8.50
2023-04-08T21:34:08.357Z,8.37
2023-04-08T21:36:36.389Z,6.20
2023-04-08T21:39:04.642Z,5.70
2023-04-08T21:41:32.923Z,5.67
2023-04-08T21:44:02.621Z,5.30
2023-04-08T21:46:30.947Z,6.07
2023-04-08T21:48:58.962Z,7.00
2023-04-08T21:51:27.129Z,6.20
2023-04-08T21:53:55.261Z,4.80
2023-04-08T21:56:24.513Z,4.70
2023-04-08T21:58:52.813Z,4.80
2023-04-08T22:01:22.417Z,4.90
2023-04-08T22:03:53.755Z,4.20
2023-04-08T22:06:31.685Z,4.37
2023-04-08T22:09:00.877Z,4.47
2023-04-08T22:11:28.900Z,4.40
2023-04-08T22:13:56.997Z,4.10
2023-04-08T22:16:26.458Z,4.03
2023-04-08T22:18:54.695Z,3.40
2023-04-08T22:21:23.601Z,4.07
2023-04-08T22:23:51.749Z,4.00
2023-04-08T22:26:19.828Z,3.80
2023-04-08T22:28:47.960Z,4.53
2023-04-08T22:31:16.292Z,3.90
2023-04-08T22:33:46.084Z,3.77
2023-04-08T22:36:14.186Z,5.90
2023-04-08T22:38:42.385Z,4.53
2023-04-08T22:41:18.594Z,4.10
2023-04-08T22:43:46.859Z,3.77
2023-04-08T22:46:15.396Z,4.07
2023-04-08T22:48:44.858Z,3.80
2023-04-08T22:51:13.393Z,3.77
2023-04-08T22:53:41.642Z,4.47
2023-04-08T22:56:09.662Z,4.03
2023-04-08T22:58:37.698Z,3.83
2023-04-08T23:01:12.222Z,4.60
2023-04-08T23:03:40.595Z,3.70
2023-04-08T23:06:10.372Z,3.50
2023-04-08T23:08:38.633Z,3.20
2023-04-08T23:11:07.182Z,3.17
2023-04-08T23:13:35.594Z,3.50
2023-04-08T23:16:03.769Z,3.40
2023-04-08T23:18:31.922Z,3.87
2023-04-08T23:20:59.973Z,5.10
2023-04-08T23:23:29.614Z,5.63
2023-04-08T23:25:57.626Z,4.07
2023-04-08T23:28:25.906Z,4.80
2023-04-08T23:30:53.990Z,3.67
2023-04-08T23:33:22.088Z,3.80
2023-04-08T23:35:50.158Z,3.80
2023-04-08T23:38:18.190Z,3.20
2023-04-08T23:40:47.571Z,3.33
2023-04-08T23:43:15.610Z,3.80
2023-04-08T23:45:43.699Z,3.20
2023-04-08T23:48:11.727Z,3.83
2023-04-08T23:50:40.590Z,3.37
2023-04-08T23:53:08.795Z,3.07
2023-04-08T23:55:37.084Z,3.20
2023-04-08T23:58:06.474Z,3.80
